Edwardsburg, MI (49112)

2:53 PM EDT on August 28, 2016 (GMT -0400)
Red Barn Farm | | Change Station

Elev 813 ft 41.77 °N, 85.91 °W | Updated 6 seconds ago

Scattered Clouds
Scattered Clouds
76.4 °F
Feels Like 77 °F
N
1.0
Wind Variable Wind from ESE
Gusts 0.0 mph

Today
High -- | Low -- °F
--% Chance of Precip.
Yesterday
High -- | Low -- °F
Precip. -- in
Pressure 30.20 in
Visibility 10.0 miles
Clouds Scattered Clouds 2300 ft
Scattered Clouds 3900 ft
Heat Index 77 °F
Dew Point 71 °F
Humidity 84%
Rainfall 0.02 in
Snow Depth Not available.
7:06 AM 8:23 PM
Waning Crescent, 14% visible
METAR KEKM 281750Z 11005KT 10SM SCT023 SCT039 27/22 A3020 RMK AO2 TS SE-S
Pressure 30.20 in
Visibility 10.0 miles
Clouds Scattered Clouds 2300 ft
Scattered Clouds 3900 ft
Heat Index 77 °F
Dew Point 71 °F
Humidity 84%
Rainfall 0.02 in
Snow Depth Not available.
7:06 AM 8:23 PM
Waning Crescent, 14% visible
METAR KEKM 281750Z 11005KT 10SM SCT023 SCT039 27/22 A3020 RMK AO2 TS SE-S

10-Day Weather Forecast

Almanac

Astronomy

Aug. 28, 2016 Rise Set
Actual Time
Civil Twilight
Nautical Twilight
Astronomical Twilight
Moon
Length of Visible Light
Length of Day
Tomorrow will be .
, % of the Moon is Illuminated

Today's Extremes

State Highs State Lows

Community

WunderPhotos

Upload Photos

1,935,647 photos uploaded!

WunderBlog® & News

Nearby

Air Quality

  Air Quality AQ Index Pollutant
Not available.

Snow Depth

Station Depth Elevation

Earthquake Activity

City Distance Mag. Time & Date
Minimum magnitude displayed is 2.5.

Coastal Water Temperatures

Place Temperature

Stations

Nearby Weather Stations

Station Location Temp. Windchill Dew Point Humidity Wind Precip. Elev Updated Type
                   

Watches & Warnings

There are currently no watches in effect.